Time;durP1;ratioP1;P1;durP2;ratioP2;P2;SDS_P1;SDS_P2;PMS_P1;PMS_P2;Temp;Humidity;BMP_temperature;BMP_pressure;BME280_temperature;BME280_humidity;BME280_pressure;Samples;Min_cycle;Max_cycle;Signal;HPM_P1;HPM_P2
2022/06/28 08:00:22;;;;;;;6.10;4.13;;;;;;;;;;4932101;23;20146;-61
2022/06/28 08:02:49;;;;;;;8.18;4.93;;;;;;;;;;4933336;29;20047;-60
2022/06/28 08:05:15;;;;;;;9.32;5.05;;;;;;;;;;4933348;29;20054;-60
2022/06/28 08:07:41;;;;;;;7.05;4.50;;;;;;;;;;4933529;29;20557;-63
2022/06/28 08:10:08;;;;;;;5.95;3.50;;;;;;;;;;4933679;29;20054;-65
2022/06/28 08:12:34;;;;;;;7.47;3.42;;;;;;;;;;4933291;29;20039;-60
2022/06/28 08:15:00;;;;;;;5.53;3.97;;;;;;;;;;4933432;29;20027;-64
2022/06/28 08:17:26;;;;;;;5.97;3.47;;;;;;;;;;4933018;29;20055;-60
2022/06/28 08:19:52;;;;;;;7.63;3.58;;;;;;;;;;4932905;29;20110;-63
2022/06/28 08:22:18;;;;;;;4.00;3.30;;;;;;;;;;4933283;29;20036;-63
2022/06/28 08:24:44;;;;;;;7.05;4.20;;;;;;;;;;4933411;29;20038;-62
2022/06/28 08:27:11;;;;;;;5.15;3.63;;;;;;;;;;4936049;29;20031;-60
2022/06/28 08:29:37;;;;;;;9.23;3.42;;;;;;;;;;4937054;29;20047;-62
2022/06/28 08:32:03;;;;;;;5.90;4.13;;;;;;;;;;4936827;29;20024;-60
2022/06/28 08:34:30;;;;;;;6.95;4.97;;;;;;;;;;4936612;29;20087;-60
2022/06/28 08:36:56;;;;;;;9.45;6.95;;;;;;;;;;4936474;29;20042;-60
2022/06/28 08:39:22;;;;;;;5.47;4.07;;;;;;;;;;4936619;29;20107;-60
2022/06/28 08:41:48;;;;;;;7.35;3.47;;;;;;;;;;4936731;29;20031;-61
2022/06/28 08:44:17;;;;;;;9.57;4.07;;;;;;;;;;4936572;29;20102;-60
2022/06/28 08:46:44;;;;;;;5.78;3.40;;;;;;;;;;4936276;29;20024;-60
2022/06/28 08:49:13;;;;;;;6.50;3.17;;;;;;;;;;4936515;29;20601;-61
2022/06/28 08:51:39;;;;;;;7.55;4.13;;;;;;;;;;4936437;29;20023;-61
2022/06/28 08:54:05;;;;;;;6.47;4.15;;;;;;;;;;4936597;29;20071;-66
2022/06/28 08:56:31;;;;;;;9.43;4.05;;;;;;;;;;4936549;29;20027;-61
2022/06/28 08:58:58;;;;;;;6.07;3.67;;;;;;;;;;4936086;29;20518;-60
2022/06/28 09:01:25;;;;;;;6.22;3.47;;;;;;;;;;4936062;29;20411;-59
2022/06/28 09:03:52;;;;;;;5.90;3.20;;;;;;;;;;4936458;29;20067;-67
2022/06/28 09:06:18;;;;;;;6.57;3.70;;;;;;;;;;4936393;29;20030;-63
2022/06/28 09:08:44;;;;;;;6.18;3.50;;;;;;;;;;4936346;29;20058;-64
2022/06/28 09:11:10;;;;;;;6.40;3.33;;;;;;;;;;4936166;29;20105;-60
2022/06/28 09:13:36;;;;;;;3.90;3.00;;;;;;;;;;4935853;29;20047;-60
2022/06/28 09:16:03;;;;;;;4.88;3.20;;;;;;;;;;4935613;29;20124;-59
2022/06/28 09:18:35;;;;;;;5.40;3.20;;;;;;;;;;4936091;29;20032;-59
2022/06/28 09:21:02;;;;;;;4.63;3.28;;;;;;;;;;4935896;29;20019;-62
2022/06/28 09:23:28;;;;;;;6.00;3.33;;;;;;;;;;4935626;29;20048;-60
2022/06/28 09:25:57;;;;;;;5.68;3.83;;;;;;;;;;4935894;29;20028;-64
2022/06/28 09:28:28;;;;;;;5.47;3.67;;;;;;;;;;4935725;29;20031;-59
2022/06/28 09:31:15;;;;;;;4.93;3.50;;;;;;;;;;4935807;29;20030;-59
2022/06/28 09:33:41;;;;;;;5.05;3.80;;;;;;;;;;4935564;29;20055;-60
2022/06/28 09:36:10;;;;;;;5.50;3.05;;;;;;;;;;4935479;29;20099;-60
2022/06/28 09:38:36;;;;;;;4.60;3.20;;;;;;;;;;4935554;29;20031;-62
2022/06/28 09:41:02;;;;;;;4.13;3.40;;;;;;;;;;4935574;29;20051;-61
2022/06/28 09:43:32;;;;;;;5.80;3.63;;;;;;;;;;4935279;29;20035;-60
2022/06/28 09:45:58;;;;;;;5.35;3.78;;;;;;;;;;4935071;29;20024;-61
2022/06/28 09:48:25;;;;;;;5.68;4.00;;;;;;;;;;4935532;29;20049;-61
2022/06/28 09:50:57;;;;;;;6.88;3.67;;;;;;;;;;4935489;29;20024;-60
2022/06/28 09:53:25;;;;;;;4.32;3.00;;;;;;;;;;4935567;29;20134;-60
2022/06/28 09:55:52;;;;;;;5.32;3.55;;;;;;;;;;4935397;29;20091;-59
2022/06/28 09:58:19;;;;;;;8.88;3.95;;;;;;;;;;4934895;29;20420;-60
2022/06/28 10:00:45;;;;;;;17.10;4.20;;;;;;;;;;4935456;29;20036;-62
2022/06/28 10:03:12;;;;;;;6.38;3.38;;;;;;;;;;4935070;29;20526;-61
2022/06/28 10:05:38;;;;;;;5.68;3.78;;;;;;;;;;4935377;29;20027;-65
2022/06/28 10:08:05;;;;;;;6.82;3.70;;;;;;;;;;4935306;29;20065;-67
2022/06/28 10:10:31;;;;;;;3.80;2.30;;;;;;;;;;4935180;29;20492;-60
2022/06/28 10:15:48;;;;;;;5.85;3.05;;;;;;;;;;4934952;29;20487;-61
2022/06/28 10:18:19;;;;;;;3.75;2.80;;;;;;;;;;4935050;29;20032;-61
2022/06/28 10:20:46;;;;;;;9.13;3.30;;;;;;;;;;4934268;29;20024;-60
2022/06/28 10:23:36;;;;;;;3.75;2.60;;;;;;;;;;4933757;29;20073;-61
2022/06/28 10:26:11;;;;;;;4.28;2.30;;;;;;;;;;4934530;29;20031;-64
2022/06/28 10:28:37;;;;;;;3.13;2.40;;;;;;;;;;4934281;29;20107;-59
2022/06/28 10:31:21;;;;;;;5.03;2.20;;;;;;;;;;4934683;29;20110;-62
2022/06/28 10:33:48;;;;;;;3.33;2.33;;;;;;;;;;4934540;29;20030;-60
2022/06/28 10:36:14;;;;;;;4.68;2.63;;;;;;;;;;4934473;29;20411;-65
2022/06/28 10:38:59;;;;;;;4.75;2.85;;;;;;;;;;4934273;29;20117;-60
2022/06/28 10:41:36;;;;;;;4.30;2.88;;;;;;;;;;4933804;29;20074;-60
2022/06/28 10:44:06;;;;;;;4.18;2.65;;;;;;;;;;4934174;29;20043;-60
2022/06/28 10:46:32;;;;;;;5.07;2.47;;;;;;;;;;4933959;29;20115;-59
2022/06/28 10:49:04;;;;;;;4.35;2.40;;;;;;;;;;4934307;29;20031;-59
2022/06/28 10:51:30;;;;;;;;;;;;;;;;;;4934270;29;20484;-59
2022/06/28 10:54:04;;;;;;;3.55;2.67;;;;;;;;;;4934360;29;19957;-60
2022/06/28 10:56:31;;;;;;;4.38;2.00;;;;;;;;;;4934411;29;20480;-62
2022/06/28 10:58:58;;;;;;;3.55;2.50;;;;;;;;;;4933985;29;20059;-59
2022/06/28 11:01:42;;;;;;;8.70;2.60;;;;;;;;;;4934279;29;20036;-59
2022/06/28 11:04:13;;;;;;;4.60;2.47;;;;;;;;;;4934193;29;20038;-60
2022/06/28 11:06:43;;;;;;;8.05;2.88;;;;;;;;;;4917021;29;20138;-64
2022/06/28 11:09:11;;;;;;;4.25;2.80;;;;;;;;;;4934197;29;20028;-60
2022/06/28 11:11:57;;;;;;;3.90;2.72;;;;;;;;;;4934277;29;20524;-60
2022/06/28 11:14:30;;;;;;;4.63;2.50;;;;;;;;;;4933760;29;20035;-59
2022/06/28 11:16:57;;;;;;;5.70;2.80;;;;;;;;;;4933669;29;20483;-60
2022/06/28 11:19:24;;;;;;;4.82;2.70;;;;;;;;;;4933844;29;20042;-60
2022/06/28 11:21:54;;;;;;;4.00;2.63;;;;;;;;;;4933737;29;20119;-60
2022/06/28 11:24:21;;;;;;;5.45;2.80;;;;;;;;;;4933971;29;20043;-60
2022/06/28 11:29:32;;;;;;;4.63;2.58;;;;;;;;;;4934068;29;20050;-59
2022/06/28 11:31:58;;;;;;;4.07;2.30;;;;;;;;;;4933912;29;20031;-59
2022/06/28 11:34:28;;;;;;;6.10;2.53;;;;;;;;;;4934093;29;20102;-60
2022/06/28 11:36:55;;;;;;;5.68;2.83;;;;;;;;;;4933973;29;20031;-59
2022/06/28 11:39:23;;;;;;;4.85;2.40;;;;;;;;;;4933897;29;20114;-62
2022/06/28 11:41:50;;;;;;;3.45;2.70;;;;;;;;;;4933371;29;20055;-61
2022/06/28 11:44:16;;;;;;;5.93;2.90;;;;;;;;;;4933843;29;20028;-61
2022/06/28 11:46:43;;;;;;;3.70;2.70;;;;;;;;;;4933270;29;20036;-62
2022/06/28 11:49:09;;;;;;;6.22;2.83;;;;;;;;;;4933700;29;20039;-59
2022/06/28 11:51:35;;;;;;;5.00;2.50;;;;;;;;;;4933839;29;20066;-61
2022/06/28 11:54:08;;;;;;;5.00;2.85;;;;;;;;;;4934052;29;20031;-64
2022/06/28 11:56:45;;;;;;;4.97;2.60;;;;;;;;;;4933511;29;20023;-64
2022/06/28 11:59:11;;;;;;;5.78;2.92;;;;;;;;;;4934064;29;20055;-61
2022/06/28 12:01:38;;;;;;;4.60;2.60;;;;;;;;;;4937488;29;20023;-60
2022/06/28 12:04:06;;;;;;;5.57;3.05;;;;;;;;;;4937348;29;20071;-62
2022/06/28 12:06:33;;;;;;;4.50;2.80;;;;;;;;;;4937539;29;20035;-63
2022/06/28 12:09:04;;;;;;;4.70;2.50;;;;;;;;;;4933531;29;20039;-61
2022/06/28 12:11:40;;;;;;;5.97;2.65;;;;;;;;;;4926558;29;20020;-63
2022/06/28 12:14:12;;;;;;;3.78;2.60;;;;;;;;;;4928926;29;20059;-68
2022/06/28 12:16:40;;;;;;;6.43;2.60;;;;;;;;;;4936725;29;20115;-60
2022/06/28 12:19:14;;;;;;;5.85;2.70;;;;;;;;;;4936742;29;20047;-61
2022/06/28 12:21:57;;;;;;;11.10;3.15;;;;;;;;;;4930999;29;20114;-61
2022/06/28 12:24:42;;;;;;;5.63;2.50;;;;;;;;;;4927360;29;20044;-63
2022/06/28 12:27:08;;;;;;;4.75;2.50;;;;;;;;;;4923167;29;20047;-67
2022/06/28 12:29:35;;;;;;;3.90;2.63;;;;;;;;;;4924516;29;20491;-65
2022/06/28 12:32:01;;;;;;;6.05;2.50;;;;;;;;;;4926676;29;20035;-62
2022/06/28 12:34:27;;;;;;;3.85;2.50;;;;;;;;;;4926058;29;20016;-62
2022/06/28 12:36:53;;;;;;;7.07;2.60;;;;;;;;;;4907869;29;20406;-61
2022/06/28 12:39:19;;;;;;;5.97;2.97;;;;;;;;;;4927123;29;20026;-61
2022/06/28 12:41:48;;;;;;;5.18;2.85;;;;;;;;;;4925720;29;20028;-60
2022/06/28 12:44:14;;;;;;;5.63;2.80;;;;;;;;;;4922631;29;20444;-62
2022/06/28 12:46:40;;;;;;;6.78;3.05;;;;;;;;;;4918142;29;20110;-61
2022/06/28 12:49:06;;;;;;;7.30;2.80;;;;;;;;;;4930518;29;20039;-60
2022/06/28 12:51:32;;;;;;;5.57;2.45;;;;;;;;;;4931053;29;20028;-67
2022/06/28 12:53:58;;;;;;;5.88;2.63;;;;;;;;;;4926208;29;20036;-63
2022/06/28 12:56:24;;;;;;;5.82;3.08;;;;;;;;;;4916851;29;20036;-64
2022/06/28 12:58:51;;;;;;;5.45;2.65;;;;;;;;;;4916739;29;20048;-66
2022/06/28 13:01:21;;;;;;;6.45;3.17;;;;;;;;;;4916708;29;20039;-62
2022/06/28 13:03:47;;;;;;;5.03;2.80;;;;;;;;;;4916768;29;20511;-65
2022/06/28 13:06:13;;;;;;;6.22;2.88;;;;;;;;;;4919241;29;20115;-63
2022/06/28 13:08:39;;;;;;;6.05;2.90;;;;;;;;;;4921378;29;20032;-62
2022/06/28 13:11:05;;;;;;;4.75;2.47;;;;;;;;;;4923093;29;20108;-63
2022/06/28 13:13:31;;;;;;;6.70;2.90;;;;;;;;;;4930035;29;20100;-62
2022/06/28 13:15:58;;;;;;;4.80;2.97;;;;;;;;;;4935334;29;20531;-60
2022/06/28 13:18:24;;;;;;;5.15;2.92;;;;;;;;;;4923109;29;20064;-65
2022/06/28 13:20:51;;;;;;;6.18;3.10;;;;;;;;;;4934165;29;20040;-60
2022/06/28 13:23:17;;;;;;;5.68;2.65;;;;;;;;;;4932895;29;20044;-61
2022/06/28 13:25:43;;;;;;;9.10;2.95;;;;;;;;;;4928143;29;20043;-60
2022/06/28 13:28:10;;;;;;;6.78;3.13;;;;;;;;;;4935640;29;20541;-59
2022/06/28 13:30:36;;;;;;;7.05;2.85;;;;;;;;;;4936026;29;20031;-59
2022/06/28 13:33:03;;;;;;;4.82;3.00;;;;;;;;;;4934424;29;20034;-59
2022/06/28 13:35:29;;;;;;;8.30;2.40;;;;;;;;;;4935979;29;20495;-69
2022/06/28 13:37:55;;;;;;;4.28;2.35;;;;;;;;;;4935873;29;20043;-67
2022/06/28 13:40:22;;;;;;;4.53;2.42;;;;;;;;;;4935385;29;20028;-62
2022/06/28 13:42:48;;;;;;;6.70;3.08;;;;;;;;;;4935652;29;20032;-62
2022/06/28 13:45:15;;;;;;;4.53;2.63;;;;;;;;;;4935221;29;20027;-63
2022/06/28 13:47:42;;;;;;;6.75;2.90;;;;;;;;;;4935087;29;20047;-61
2022/06/28 13:50:08;;;;;;;5.18;2.50;;;;;;;;;;4935240;29;20034;-61
2022/06/28 13:52:35;;;;;;;6.78;2.60;;;;;;;;;;4935272;29;20151;-61
2022/06/28 13:55:01;;;;;;;3.72;2.40;;;;;;;;;;4935362;29;20020;-59
2022/06/28 13:57:27;;;;;;;6.07;2.40;;;;;;;;;;4934796;29;20034;-60
2022/06/28 13:59:55;;;;;;;3.70;2.20;;;;;;;;;;4934129;29;20056;-64
2022/06/28 14:02:22;;;;;;;4.40;2.50;;;;;;;;;;4934789;29;20496;-65
2022/06/28 14:04:48;;;;;;;5.68;2.55;;;;;;;;;;4935240;29;20468;-60
2022/06/28 14:07:14;;;;;;;3.42;2.50;;;;;;;;;;4934661;29;20099;-64
2022/06/28 14:09:42;;;;;;;3.08;2.20;;;;;;;;;;4934917;29;20150;-61
2022/06/28 14:12:08;;;;;;;6.30;2.55;;;;;;;;;;4934989;29;20032;-67
2022/06/28 14:14:36;;;;;;;5.28;2.75;;;;;;;;;;4934844;29;20051;-63
2022/06/28 14:17:02;;;;;;;5.05;3.17;;;;;;;;;;4934086;29;20035;-63
2022/06/28 14:19:28;;;;;;;3.15;2.83;;;;;;;;;;4934793;29;20038;-60
2022/06/28 14:21:56;;;;;;;4.53;2.70;;;;;;;;;;4934576;29;20027;-59
2022/06/28 14:24:23;;;;;;;7.20;2.90;;;;;;;;;;4934146;29;20035;-59
2022/06/28 14:26:50;;;;;;;5.30;3.17;;;;;;;;;;4934719;29;20443;-61
2022/06/28 14:29:16;;;;;;;3.10;2.67;;;;;;;;;;4934237;29;20038;-60
2022/06/28 14:31:42;;;;;;;3.53;2.63;;;;;;;;;;4934609;29;20111;-60
2022/06/28 14:34:12;;;;;;;5.10;3.13;;;;;;;;;;4934679;29;20031;-63
2022/06/28 14:36:38;;;;;;;4.22;2.85;;;;;;;;;;4933973;29;20039;-64
2022/06/28 14:39:05;;;;;;;4.82;3.05;;;;;;;;;;4934620;29;20492;-63
2022/06/28 14:41:32;;;;;;;4.63;2.80;;;;;;;;;;4930952;29;20427;-59
2022/06/28 14:43:58;;;;;;;6.63;3.10;;;;;;;;;;4920042;29;20075;-61
2022/06/28 14:46:24;;;;;;;4.80;2.80;;;;;;;;;;4926541;29;20035;-63
2022/06/28 14:48:51;;;;;;;7.20;2.92;;;;;;;;;;4924442;29;20064;-66
2022/06/28 14:51:17;;;;;;;7.35;3.20;;;;;;;;;;4925055;29;20032;-64
2022/06/28 14:53:43;;;;;;;6.28;2.83;;;;;;;;;;4924756;29;20023;-61
2022/06/28 14:56:09;;;;;;;5.82;3.15;;;;;;;;;;4923650;29;20059;-62
2022/06/28 14:58:35;;;;;;;4.47;3.20;;;;;;;;;;4931032;29;20055;-61
2022/06/28 15:01:02;;;;;;;5.72;3.00;;;;;;;;;;4924115;29;20083;-61
2022/06/28 15:03:28;;;;;;;4.78;3.33;;;;;;;;;;4919194;29;20071;-64
2022/06/28 15:05:54;;;;;;;5.57;3.30;;;;;;;;;;4922826;29;20024;-66
2022/06/28 15:08:20;;;;;;;5.55;2.92;;;;;;;;;;4917145;29;20068;-62
2022/06/28 15:10:47;;;;;;;6.30;2.85;;;;;;;;;;4917764;29;20575;-66
2022/06/28 15:13:15;;;;;;;6.78;3.10;;;;;;;;;;4920315;29;20039;-61
2022/06/28 15:15:41;;;;;;;4.68;2.90;;;;;;;;;;4934184;29;20051;-62
2022/06/28 15:18:08;;;;;;;4.47;2.85;;;;;;;;;;4933858;29;20124;-61
2022/06/28 15:20:34;;;;;;;5.85;2.60;;;;;;;;;;4933892;29;20024;-60
2022/06/28 15:31:15;;;;;;;5.75;2.78;;;;;;;;;;4870717;29;20623;-61
2022/06/28 15:33:41;;;;;;;11.38;3.53;;;;;;;;;;4874417;29;20462;-63
2022/06/28 15:36:07;;;;;;;7.65;3.05;;;;;;;;;;4875068;29;20088;-63
2022/06/28 15:38:34;;;;;;;4.55;3.45;;;;;;;;;;4875163;29;20063;-62
2022/06/28 15:41:01;;;;;;;5.93;2.78;;;;;;;;;;4875210;29;20432;-63
2022/06/28 15:43:27;;;;;;;5.97;2.90;;;;;;;;;;4875135;29;20041;-63
2022/06/28 15:45:53;;;;;;;4.47;2.72;;;;;;;;;;4875004;29;20064;-63
2022/06/28 15:48:21;;;;;;;6.95;3.00;;;;;;;;;;4874874;29;20029;-62
2022/06/28 15:50:47;;;;;;;5.82;2.85;;;;;;;;;;4871708;29;20117;-61
2022/06/28 15:53:13;;;;;;;6.55;2.75;;;;;;;;;;4863005;29;20113;-62
2022/06/28 15:55:39;;;;;;;5.30;2.60;;;;;;;;;;4865530;29;20033;-62
2022/06/28 15:58:07;;;;;;;5.72;2.63;;;;;;;;;;4864823;29;20044;-63
2022/06/28 16:00:33;;;;;;;5.03;2.53;;;;;;;;;;4864084;29;20124;-62
2022/06/28 16:02:59;;;;;;;6.63;2.80;;;;;;;;;;4857817;29;20435;-66
2022/06/28 16:05:26;;;;;;;4.82;2.80;;;;;;;;;;4881370;29;20512;-62
2022/06/28 16:07:52;;;;;;;4.30;2.70;;;;;;;;;;4914710;29;20028;-62
2022/06/28 16:10:19;;;;;;;6.18;2.72;;;;;;;;;;4918247;29;20024;-62
2022/06/28 16:13:00;;;;;;;4.20;2.58;;;;;;;;;;4921556;29;20076;-64
2022/06/28 16:15:30;;;;;;;7.00;3.20;;;;;;;;;;4921767;29;20175;-62
2022/06/28 16:17:57;;;;;;;6.22;2.80;;;;;;;;;;4915414;29;20024;-65
2022/06/28 16:20:24;;;;;;;7.82;2.92;;;;;;;;;;4916827;29;20032;-64
2022/06/28 16:22:50;;;;;;;6.00;2.83;;;;;;;;;;4922877;29;20453;-64
2022/06/28 16:25:17;;;;;;;8.85;2.65;;;;;;;;;;4922922;29;20080;-63
2022/06/28 16:27:43;;;;;;;5.15;2.90;;;;;;;;;;4921312;29;20024;-61
2022/06/28 16:30:10;;;;;;;4.32;2.85;;;;;;;;;;4923334;29;20023;-64
2022/06/28 16:32:36;;;;;;;5.18;2.58;;;;;;;;;;4922688;29;20030;-62
2022/06/28 16:35:02;;;;;;;7.68;2.80;;;;;;;;;;4922386;29;20036;-62
2022/06/28 16:37:29;;;;;;;7.18;2.70;;;;;;;;;;4930819;29;20028;-62
2022/06/28 16:39:56;;;;;;;5.65;2.97;;;;;;;;;;4922573;29;20034;-63
2022/06/28 16:42:22;;;;;;;6.57;2.88;;;;;;;;;;4922495;29;20375;-61
2022/06/28 16:44:51;;;;;;;5.68;3.00;;;;;;;;;;4921601;29;20173;-63
2022/06/28 16:47:18;;;;;;;6.35;2.92;;;;;;;;;;4924804;29;20024;-64
2022/06/28 16:49:44;;;;;;;5.63;3.22;;;;;;;;;;4926055;29;20103;-64
2022/06/28 16:52:10;;;;;;;4.57;3.00;;;;;;;;;;4924591;29;20024;-63
2022/06/28 16:54:36;;;;;;;6.22;3.00;;;;;;;;;;4927955;29;20020;-64
2022/06/28 16:57:02;;;;;;;8.05;2.97;;;;;;;;;;4926158;29;20031;-64
2022/06/28 16:59:28;;;;;;;7.68;2.80;;;;;;;;;;4921399;29;20056;-64
2022/06/28 17:01:54;;;;;;;3.58;2.45;;;;;;;;;;4916815;29;20040;-63
2022/06/28 17:04:20;;;;;;;4.50;2.70;;;;;;;;;;4922601;29;20043;-65
2022/06/28 17:09:31;;;;;;;4.40;2.97;;;;;;;;;;4933395;29;20119;-67
2022/06/28 17:11:57;;;;;;;10.25;2.97;;;;;;;;;;4928765;29;20028;-61
2022/06/28 17:14:23;;;;;;;5.43;2.70;;;;;;;;;;4926955;29;20024;-65
2022/06/28 17:16:49;;;;;;;7.30;2.90;;;;;;;;;;4929109;29;20106;-61
2022/06/28 17:19:15;;;;;;;8.70;3.15;;;;;;;;;;4932824;29;20480;-61
2022/06/28 17:21:43;;;;;;;12.65;3.28;;;;;;;;;;4935409;29;20036;-62
2022/06/28 17:24:11;;;;;;;7.20;2.92;;;;;;;;;;4935612;29;20031;-63
2022/06/28 17:26:38;;;;;;;7.40;3.40;;;;;;;;;;4935680;29;20047;-62
2022/06/28 17:29:04;;;;;;;16.15;3.38;;;;;;;;;;4918102;29;20513;-64
2022/06/28 17:31:30;;;;;;;9.95;2.95;;;;;;;;;;4935139;29;20554;-61
2022/06/28 17:33:56;;;;;;;5.30;2.80;;;;;;;;;;4935525;29;20483;-62
2022/06/28 17:36:22;;;;;;;7.32;3.00;;;;;;;;;;4935514;29;20115;-61
2022/06/28 17:38:48;;;;;;;9.40;3.03;;;;;;;;;;4934947;29;20041;-62
2022/06/28 17:41:14;;;;;;;9.95;2.90;;;;;;;;;;4935482;29;20024;-61
2022/06/28 17:43:40;;;;;;;5.93;3.10;;;;;;;;;;4935328;29;20044;-63
2022/06/28 17:46:07;;;;;;;6.63;2.88;;;;;;;;;;4935384;29;20480;-63
2022/06/28 17:48:33;;;;;;;4.50;2.85;;;;;;;;;;4934695;29;20063;-61
2022/06/28 17:50:59;;;;;;;7.30;3.10;;;;;;;;;;4935020;29;20046;-61
2022/06/28 17:53:25;;;;;;;9.45;2.97;;;;;;;;;;4935468;29;20456;-61
2022/06/28 17:55:53;;;;;;;8.10;3.05;;;;;;;;;;4935343;29;20031;-62
2022/06/28 17:58:19;;;;;;;5.60;2.67;;;;;;;;;;4934571;29;20040;-61
2022/06/28 18:00:45;;;;;;;6.50;3.20;;;;;;;;;;4934482;29;20028;-61
2022/06/28 18:03:11;;;;;;;6.18;3.35;;;;;;;;;;4934887;29;20043;-61
2022/06/28 18:05:37;;;;;;;10.95;4.35;;;;;;;;;;4935080;29;20028;-61
2022/06/28 18:08:03;;;;;;;6.38;2.80;;;;;;;;;;4934485;29;20031;-61
2022/06/28 18:10:29;;;;;;;9.88;4.45;;;;;;;;;;4934986;29;20023;-62
2022/06/28 18:12:55;;;;;;;8.57;3.70;;;;;;;;;;4930840;29;20624;-61
2022/06/28 18:15:22;;;;;;;7.40;3.65;;;;;;;;;;4934266;29;20055;-61
2022/06/28 18:17:49;;;;;;;6.53;3.10;;;;;;;;;;4934622;29;20039;-62
2022/06/28 18:20:15;;;;;;;5.82;3.40;;;;;;;;;;4934749;29;20475;-61
2022/06/28 18:22:41;;;;;;;10.40;3.10;;;;;;;;;;4934798;29;20503;-62
2022/06/28 18:25:07;;;;;;;9.00;3.60;;;;;;;;;;4915843;29;20096;-61
2022/06/28 18:27:33;;;;;;;8.90;3.33;;;;;;;;;;4915905;29;20032;-61
2022/06/28 18:29:59;;;;;;;8.40;3.60;;;;;;;;;;4915795;29;20497;-62
2022/06/28 18:32:25;;;;;;;6.90;3.90;;;;;;;;;;4915674;29;20035;-61
2022/06/28 18:34:51;;;;;;;7.70;3.70;;;;;;;;;;4915827;29;20088;-62
2022/06/28 18:37:17;;;;;;;6.43;3.35;;;;;;;;;;4915502;29;20056;-62
2022/06/28 18:39:43;;;;;;;10.25;4.55;;;;;;;;;;4915506;29;20403;-61
2022/06/28 18:42:10;;;;;;;22.85;7.30;;;;;;;;;;4915659;29;20854;-62
2022/06/28 18:44:37;;;;;;;15.52;7.32;;;;;;;;;;4915335;29;20396;-61
2022/06/28 18:47:03;;;;;;;16.50;6.22;;;;;;;;;;4915240;29;20024;-61
2022/06/28 18:49:29;;;;;;;17.45;5.55;;;;;;;;;;4915449;29;20028;-64
2022/06/28 18:51:56;;;;;;;15.15;5.93;;;;;;;;;;4915345;29;20063;-61
2022/06/28 18:54:22;;;;;;;14.43;6.97;;;;;;;;;;4915757;29;20016;-64
2022/06/28 18:56:48;;;;;;;22.17;8.75;;;;;;;;;;4915233;29;20493;-61
2022/06/28 18:59:14;;;;;;;18.27;6.90;;;;;;;;;;4914899;29;20071;-62
2022/06/28 19:01:40;;;;;;;15.15;6.60;;;;;;;;;;4915137;29;20432;-64
2022/06/28 19:04:06;;;;;;;16.15;6.78;;;;;;;;;;4915427;29;20036;-61
2022/06/28 19:06:32;;;;;;;15.57;8.00;;;;;;;;;;4915197;29;20465;-65
2022/06/28 19:08:58;;;;;;;21.05;11.00;;;;;;;;;;4914407;29;20035;-61
2022/06/28 19:11:24;;;;;;;20.00;7.57;;;;;;;;;;4914761;29;20028;-67
2022/06/28 19:13:50;;;;;;;38.63;22.23;;;;;;;;;;4922048;29;20091;-62
2022/06/28 19:16:16;;;;;;;61.13;40.33;;;;;;;;;;4921778;29;20029;-67
2022/06/28 19:18:42;;;;;;;53.97;32.40;;;;;;;;;;4921955;29;20071;-62
2022/06/28 19:21:08;;;;;;;37.85;22.50;;;;;;;;;;4922961;29;20039;-63
2022/06/28 19:26:01;;;;;;;13.45;7.13;;;;;;;;;;5548974;22;20819;-66
2022/06/28 19:28:27;;;;;;;18.92;10.93;;;;;;;;;;5026342;28;20068;-64
2022/06/28 19:30:53;;;;;;;18.13;7.82;;;;;;;;;;5029856;28;20384;-62
2022/06/28 19:33:21;;;;;;;17.60;8.02;;;;;;;;;;5042620;28;20116;-61
2022/06/28 19:35:47;;;;;;;10.30;5.63;;;;;;;;;;5048387;28;20053;-68
2022/06/28 19:38:13;;;;;;;10.55;5.53;;;;;;;;;;5047067;28;20022;-62
2022/06/28 19:40:39;;;;;;;12.68;6.15;;;;;;;;;;5047984;28;20029;-63
2022/06/28 19:43:05;;;;;;;10.40;6.50;;;;;;;;;;5036462;28;20057;-68
2022/06/28 19:45:32;;;;;;;9.18;5.68;;;;;;;;;;5036809;28;20033;-65
2022/06/28 19:47:58;;;;;;;14.50;6.38;;;;;;;;;;5039542;28;20017;-62
2022/06/28 19:50:24;;;;;;;12.35;5.97;;;;;;;;;;5009820;28;20444;-66
2022/06/28 19:52:50;;;;;;;12.70;4.93;;;;;;;;;;5028217;28;20037;-63
2022/06/28 19:55:16;;;;;;;8.18;4.57;;;;;;;;;;5028202;28;20022;-62
2022/06/28 19:57:42;;;;;;;13.88;5.40;;;;;;;;;;5028085;28;20041;-63
2022/06/28 20:00:09;;;;;;;10.65;5.20;;;;;;;;;;5034439;28;20046;-68
2022/06/28 20:02:37;;;;;;;9.52;5.97;;;;;;;;;;5041687;28;20079;-61
2022/06/28 20:05:04;;;;;;;10.85;5.75;;;;;;;;;;5035349;28;20044;-62
2022/06/28 20:07:30;;;;;;;10.10;6.13;;;;;;;;;;5034310;28;20022;-62
2022/06/28 20:09:56;;;;;;;17.58;6.63;;;;;;;;;;5044345;28;20397;-61
2022/06/28 20:12:23;;;;;;;19.88;6.50;;;;;;;;;;5047335;28;20032;-62
2022/06/28 20:14:49;;;;;;;12.35;6.38;;;;;;;;;;5047550;28;20064;-65
2022/06/28 20:17:15;;;;;;;14.88;6.13;;;;;;;;;;5046635;28;20029;-66
2022/06/28 20:19:41;;;;;;;20.40;6.10;;;;;;;;;;5046950;28;20472;-65
2022/06/28 20:22:08;;;;;;;11.88;5.50;;;;;;;;;;5046859;28;20026;-69
2022/06/28 20:24:34;;;;;;;13.60;6.05;;;;;;;;;;5046563;28;20056;-62
2022/06/28 20:27:00;;;;;;;16.35;6.50;;;;;;;;;;5046570;28;20127;-63
2022/06/28 20:29:26;;;;;;;10.55;5.68;;;;;;;;;;5047201;28;20048;-62
2022/06/28 20:31:53;;;;;;;12.68;6.35;;;;;;;;;;5046874;28;20027;-62
2022/06/28 20:34:20;;;;;;;19.52;7.25;;;;;;;;;;5046837;28;20029;-62
2022/06/28 20:36:46;;;;;;;15.18;6.50;;;;;;;;;;5035232;28;20040;-61
2022/06/28 20:39:12;;;;;;;16.95;6.65;;;;;;;;;;5033399;28;20028;-60
2022/06/28 20:44:23;;;;;;;13.10;6.93;;;;;;;;;;5033770;28;20463;-63
2022/06/28 20:46:49;;;;;;;14.73;7.32;;;;;;;;;;5033456;28;20048;-62
2022/06/28 20:49:15;;;;;;;17.65;8.18;;;;;;;;;;5033282;28;20025;-60
2022/06/28 20:51:41;;;;;;;18.52;7.65;;;;;;;;;;5033542;28;20071;-62
2022/06/28 20:54:08;;;;;;;14.73;8.18;;;;;;;;;;5033187;28;20108;-61
2022/06/28 20:56:34;;;;;;;14.18;7.65;;;;;;;;;;5033039;28;20160;-65
2022/06/28 20:59:00;;;;;;;17.13;8.30;;;;;;;;;;5033208;28;20043;-63
2022/06/28 21:01:27;;;;;;;19.17;7.80;;;;;;;;;;5033357;28;20105;-61
2022/06/28 21:03:53;;;;;;;16.15;7.78;;;;;;;;;;5033619;28;20354;-62
2022/06/28 21:06:19;;;;;;;11.98;7.10;;;;;;;;;;5032260;28;20041;-61
2022/06/28 21:08:45;;;;;;;14.50;8.07;;;;;;;;;;5033409;28;20033;-66
2022/06/28 21:11:12;;;;;;;11.90;7.30;;;;;;;;;;5033247;28;20481;-64
2022/06/28 21:13:38;;;;;;;13.05;7.05;;;;;;;;;;5033061;28;20124;-69
2022/06/28 21:16:04;;;;;;;16.27;7.35;;;;;;;;;;5032890;28;20519;-66
2022/06/28 21:18:30;;;;;;;15.43;8.20;;;;;;;;;;5032729;28;20935;-63
2022/06/28 21:20:56;;;;;;;21.40;10.23;;;;;;;;;;5032753;28;20520;-65
2022/06/28 21:23:22;;;;;;;16.40;8.60;;;;;;;;;;5032576;28;20171;-63
2022/06/28 21:25:49;;;;;;;12.10;7.22;;;;;;;;;;5032779;28;20038;-64
2022/06/28 21:28:15;;;;;;;12.10;6.70;;;;;;;;;;5050572;28;20049;-65
2022/06/28 21:30:41;;;;;;;12.75;5.40;;;;;;;;;;5053149;28;20025;-64
2022/06/28 21:33:07;;;;;;;12.13;6.07;;;;;;;;;;5052706;28;20103;-64
2022/06/28 21:35:40;;;;;;;10.15;5.40;;;;;;;;;;5052921;28;20097;-65
2022/06/28 21:38:07;;;;;;;16.20;6.10;;;;;;;;;;5052710;28;20059;-60
2022/06/28 21:40:34;;;;;;;12.60;5.40;;;;;;;;;;5052746;28;20032;-61
2022/06/28 21:43:01;;;;;;;11.85;6.15;;;;;;;;;;5052596;28;20032;-61
2022/06/28 21:45:27;;;;;;;8.73;4.78;;;;;;;;;;5052512;28;20048;-62
2022/06/28 21:47:56;;;;;;;13.23;4.80;;;;;;;;;;5050964;28;20557;-65
2022/06/28 21:50:22;;;;;;;10.93;5.53;;;;;;;;;;5052378;28;20365;-65
2022/06/28 21:52:48;;;;;;;10.52;5.10;;;;;;;;;;5052241;28;20021;-65
2022/06/28 21:55:14;;;;;;;13.00;5.03;;;;;;;;;;5052032;28;20052;-65
2022/06/28 21:57:41;;;;;;;9.90;5.57;;;;;;;;;;5033908;28;20468;-63
2022/06/28 22:00:08;;;;;;;11.43;4.90;;;;;;;;;;5051996;28;20461;-60
2022/06/28 22:02:34;;;;;;;9.52;5.55;;;;;;;;;;5051443;28;20418;-63
2022/06/28 22:05:00;;;;;;;12.05;4.70;;;;;;;;;;5052395;28;20040;-61
2022/06/28 22:07:26;;;;;;;10.20;4.55;;;;;;;;;;5052102;28;20033;-58
2022/06/28 22:09:52;;;;;;;11.77;4.38;;;;;;;;;;5051846;28;20072;-57
2022/06/28 22:12:18;;;;;;;11.25;5.70;;;;;;;;;;5051404;28;20080;-57
2022/06/28 22:14:44;;;;;;;14.02;6.68;;;;;;;;;;5051875;28;20025;-64
2022/06/28 22:17:10;;;;;;;11.00;5.45;;;;;;;;;;5051532;28;20143;-57
2022/06/28 22:19:36;;;;;;;11.55;5.95;;;;;;;;;;5051842;28;20025;-56
2022/06/28 22:22:02;;;;;;;14.45;5.28;;;;;;;;;;5051739;28;20075;-56
2022/06/28 22:24:28;;;;;;;14.05;7.53;;;;;;;;;;5044467;28;20052;-56
2022/06/28 22:26:54;;;;;;;9.10;4.47;;;;;;;;;;5039338;28;20044;-56
2022/06/28 22:29:20;;;;;;;14.52;5.13;;;;;;;;;;5041644;28;20024;-59
2022/06/28 22:31:46;;;;;;;13.05;4.93;;;;;;;;;;5040100;28;20025;-62
2022/06/28 22:34:12;;;;;;;18.70;5.80;;;;;;;;;;5035394;28;20385;-60
2022/06/28 22:36:39;;;;;;;14.27;4.68;;;;;;;;;;5031703;28;20096;-61
2022/06/28 22:39:05;;;;;;;10.77;4.75;;;;;;;;;;5031589;28;20466;-59
2022/06/28 22:41:31;;;;;;;8.57;4.38;;;;;;;;;;5031337;28;20025;-60
2022/06/28 22:43:57;;;;;;;10.77;4.35;;;;;;;;;;5031481;28;20040;-59
2022/06/28 22:46:23;;;;;;;12.32;4.57;;;;;;;;;;5031670;28;20385;-60
2022/06/28 22:48:49;;;;;;;12.48;7.35;;;;;;;;;;5031171;28;20033;-60
2022/06/28 22:51:15;;;;;;;14.68;6.28;;;;;;;;;;5013564;28;20443;-63
2022/06/28 22:53:42;;;;;;;10.90;5.32;;;;;;;;;;5031236;28;20021;-60
2022/06/28 22:56:08;;;;;;;9.65;4.28;;;;;;;;;;5031388;28;20072;-64
2022/06/28 22:58:34;;;;;;;10.35;5.07;;;;;;;;;;5031122;28;20041;-60